.
WxDataArchive / Data Records for 2008-12-15
2008-12-14 December 2008 2008-12-16

Data Records for Monday, 15 December 2008

Time	Temp	Chill	HIndex	Humid	Dewpt	 Wind 	HiWind	WindDir	Rain 	Barom 
-----	----	-----	------	-----	-----	------	------	-------	-----	----- 
00:00	52.6	52.6	52.6	79	46.3	4	13	248	0.01	29.774 
00:05	52.6	52.6	52.6	79	46.3	4	12	248	0.00	29.774 
00:10	52.6	52.6	52.6	79	46.3	4	10	270	0.00	29.774 
00:15	52.6	52.6	52.6	79	46.3	3	11	270	0.00	29.773 
00:20	52.6	52.6	52.6	79	46.3	3	14	248	0.00	29.773 
00:25	52.6	52.6	52.6	79	46.3	3	9	270	0.00	29.773 
00:30	52.9	52.9	52.9	78	46.2	4	13	248	0.00	29.767 
00:35	53.1	53.1	53.1	77	46.1	4	10	248	0.00	29.767 
00:40	53.1	53.1	53.1	77	46.1	3	11	225	0.00	29.767 
00:45	53.1	53.1	53.1	77	46.1	5	13	248	0.00	29.764 
00:50	53.1	53.1	53.1	77	46.1	4	10	248	0.00	29.764 
00:55	53.2	53.2	53.2	77	46.2	5	14	270	0.00	29.764 
01:00	53.2	53.2	53.2	77	46.2	3	10	248	0.00	29.767 
01:05	53.2	53.2	53.2	77	46.2	4	16	270	0.00	29.767 
01:10	53.3	53.3	53.3	77	46.3	5	13	248	0.00	29.767 
01:15	53.5	53.5	53.5	77	46.5	4	10	248	0.00	29.754 
01:20	53.5	53.5	53.5	78	46.8	4	12	248	0.00	29.754 
01:25	53.8	53.8	53.8	77	46.8	6	19	248	0.00	29.754 
01:30	53.9	53.9	53.9	77	46.9	5	15	248	0.00	29.752 
01:35	53.8	53.8	53.8	77	46.8	4	12	270	0.00	29.752 
01:40	53.8	53.8	53.8	78	47.1	5	16	248	0.00	29.752 
01:45	53.6	53.6	53.6	78	46.9	4	18	270	0.00	29.749 
01:50	53.6	53.6	53.6	78	46.9	5	16	248	0.00	29.749 
01:55	53.5	53.5	53.5	79	47.1	4	10	270	0.00	29.749 
02:00	53.5	53.5	53.5	79	47.1	4	12	248	0.00	29.744 
02:05	53.6	53.6	53.6	79	47.2	5	13	248	0.00	29.744 
02:10	53.8	53.8	53.8	78	47.1	5	11	248	0.00	29.744 
02:15	53.8	53.8	53.8	79	47.4	4	12	248	0.00	29.743 
02:20	53.8	53.8	53.8	79	47.4	4	13	270	0.00	29.743 
02:25	53.8	53.8	53.8	79	47.4	4	16	248	0.00	29.743 
02:30	53.9	53.9	53.9	79	47.5	5	14	270	0.00	29.739 
02:35	54.1	54.1	54.1	78	47.4	4	11	270	0.00	29.739 
02:40	54.1	54.1	54.1	78	47.4	4	10	248	0.00	29.739 
02:45	54.2	54.2	54.2	78	47.5	3	8	248	0.00	29.745 
02:50	54.4	54.4	54.4	78	47.7	5	14	270	0.00	29.745 
02:55	54.4	54.4	54.4	78	47.7	4	11	248	0.00	29.745 
03:00	54.5	54.5	54.5	78	47.8	5	12	248	0.00	29.745 
03:05	54.5	54.5	54.5	79	48.1	4	12	248	0.00	29.745 
03:10	54.1	54.1	54.1	82	48.7	6	12	248	0.00	29.745 
03:15	53.6	53.6	53.6	84	48.9	5	13	270	0.00	29.754 
03:20	53.3	53.3	53.3	86	49.2	4	11	270	0.01	29.754 
03:25	53.2	53.2	53.2	87	49.4	5	13	248	0.00	29.754 
03:30	53.1	53.1	53.1	88	49.6	5	14	248	0.00	29.758 
03:35	52.9	52.9	52.9	89	49.7	4	14	248	0.00	29.758 
03:40	52.8	52.8	52.8	89	49.6	4	9	270	0.00	29.758 
03:45	52.6	52.6	52.6	90	49.7	5	16	270	0.00	29.754 
03:50	52.6	52.6	52.6	90	49.7	4	13	248	0.01	29.754 
03:55	52.6	52.6	52.6	90	49.7	5	17	270	0.00	29.754 
04:00	52.6	52.6	52.6	90	49.7	5	11	270	0.00	29.758 
04:05	52.6	52.6	52.6	91	50.0	5	19	248	0.00	29.758 
04:10	52.6	52.6	52.6	91	50.0	5	15	270	0.00	29.758 
04:15	52.5	52.5	52.5	91	49.9	5	13	248	0.01	29.777 
04:20	51.1	51.1	51.1	89	48.0	8	19	270	0.02	29.777 
04:25	48.9	46.4	48.9	88	45.5	6	15	270	0.00	29.777 
04:30	47.6	44.8	47.6	88	44.2	6	12	270	0.01	29.819 
04:35	46.8	44.5	46.8	90	44.0	5	13	270	0.00	29.819 
04:40	46.5	44.8	46.5	91	44.0	4	9	270	0.00	29.819 
04:45	46.4	44.7	46.4	92	44.2	4	10	270	0.01	29.836 
04:50	46.1	44.4	46.1	92	43.9	4	13	270	0.01	29.836 
04:55	45.8	44.0	45.8	92	43.6	4	10	270	0.00	29.836 
05:00	45.5	43.7	45.5	92	43.3	4	9	270	0.00	29.841 
05:05	45.1	41.8	45.1	92	42.9	6	14	270	0.01	29.841 
05:10	44.5	41.1	44.5	92	42.3	6	14	270	0.00	29.841 
05:15	43.5	40.6	43.5	91	41.0	5	15	270	0.01	29.866 
05:20	42.1	38.3	42.1	90	39.4	6	14	270	0.00	29.866 
05:25	40.9	36.8	40.9	90	38.2	6	16	270	0.01	29.866 
05:30	40.3	37.7	40.3	90	37.6	4	9	270	0.00	29.885 
05:35	40.1	40.1	40.1	91	37.7	3	7	270	0.01	29.885 
05:40	39.6	39.6	39.6	91	37.2	3	8	270	0.00	29.885 
05:45	38.8	35.1	38.8	90	36.1	5	13	270	0.01	29.895 
05:50	37.6	33.7	37.6	90	34.9	5	10	270	0.00	29.895 
05:55	37.2	34.1	37.2	90	34.5	4	10	270	0.01	29.895 
06:00	37.0	37.0	37.0	91	34.6	2	6	270	0.00	29.900 
06:05	36.6	33.4	36.6	91	34.2	4	10	270	0.00	29.900 
06:10	36.0	31.8	36.0	91	33.6	5	12	270	0.00	29.900 
06:15	35.8	31.5	35.8	91	33.4	5	14	270	0.01	29.921 
06:20	35.3	31.0	35.3	91	32.9	5	11	270	0.00	29.921 
06:25	34.9	30.5	34.9	91	32.5	5	13	270	0.00	29.921 
06:30	34.1	28.0	34.1	90	31.5	7	12	270	0.00	29.957 
06:35	33.5	28.8	33.5	90	30.9	5	16	270	0.00	29.957 
06:40	33.1	28.4	33.1	91	30.8	5	11	270	0.00	29.957 
06:45	32.8	32.8	32.8	91	30.5	3	9	270	0.00	29.973 
06:50	32.7	28.9	32.7	91	30.4	4	9	270	0.01	29.973 
06:55	32.2	27.3	32.2	91	29.9	5	13	270	0.00	29.973 
07:00	31.8	26.0	31.8	90	29.2	6	13	270	0.00	29.991 
07:05	31.5	26.5	31.5	90	28.9	5	13	270	0.00	29.991 
07:10	31.3	31.3	31.3	90	28.7	3	9	248	0.00	29.991 
07:15	31.2	31.2	31.2	89	28.3	3	10	270	0.00	29.992 
07:20	31.0	26.9	31.0	89	28.1	4	12	270	0.00	29.992 
07:25	30.6	25.4	30.6	89	27.8	5	14	270	0.00	29.992 
07:30	30.1	25.9	30.1	88	27.0	4	12	270	0.00	30.011 
07:35	29.5	24.1	29.5	88	26.4	5	14	270	0.00	30.011 
07:40	29.1	23.7	29.1	87	25.7	5	13	270	0.00	30.011 
07:45	28.8	24.4	28.8	86	25.2	4	11	270	0.00	30.046 
07:50	28.5	23.0	28.5	86	24.9	5	13	270	0.00	30.046 
07:55	27.5	20.9	27.5	84	23.3	6	17	270	0.00	30.046 
08:00	26.7	19.9	26.7	83	22.2	6	14	270	0.00	30.058 
08:05	26.4	20.5	26.4	83	22.0	5	11	270	0.00	30.058 
08:10	26.0	19.1	26.0	83	21.6	6	14	270	0.00	30.058 
08:15	25.8	18.8	25.8	82	21.1	6	17	270	0.00	30.077 
08:20	25.6	19.6	25.6	83	21.2	5	11	270	0.00	30.077 
08:25	25.3	20.3	25.3	83	20.9	4	13	270	0.00	30.077 
08:30	25.1	25.1	25.1	84	21.0	3	7	270	0.00	30.087 
08:35	25.0	25.0	25.0	84	20.9	3	7	270	0.00	30.087 
08:40	25.0	25.0	25.0	84	20.9	3	7	270	0.00	30.087 
08:45	24.7	18.5	24.7	83	20.3	5	14	270	0.00	30.106 
08:50	24.4	19.3	24.4	81	19.4	4	13	270	0.00	30.106 
08:55	24.4	24.4	24.4	82	19.7	3	7	248	0.00	30.106 
09:00	24.1	19.0	24.1	82	19.4	4	9	270	0.00	30.108 
09:05	23.8	18.6	23.8	82	19.1	4	11	270	0.00	30.108 
09:10	23.5	18.3	23.5	81	18.5	4	10	270	0.00	30.108 
09:15	23.3	18.0	23.3	81	18.3	4	9	270	0.00	30.130 
09:20	23.0	16.5	23.0	81	18.1	5	12	270	0.00	30.130 
09:25	23.0	23.0	23.0	81	18.1	3	11	270	0.00	30.130 
09:30	22.9	17.6	22.9	81	18.0	4	13	270	0.00	30.143 
09:35	22.7	17.3	22.7	80	17.5	4	12	270	0.00	30.143 
09:40	22.4	17.0	22.4	79	16.9	4	7	270	0.00	30.143 
09:45	22.2	16.8	22.2	78	16.4	4	11	270	0.00	30.173 
09:50	22.1	16.6	22.1	78	16.3	4	7	270	0.00	30.173 
09:55	21.9	16.4	21.9	78	16.1	4	11	248	0.00	30.173 
10:00	21.4	15.8	21.4	78	15.6	4	12	270	0.00	30.197 
10:05	21.0	15.4	21.0	78	15.2	4	19	248	0.00	30.197 
10:10	20.8	15.1	20.8	78	15.0	4	11	270	0.00	30.197 
10:15	20.6	14.9	20.6	78	14.8	4	9	270	0.00	30.206 
10:20	20.5	14.8	20.5	78	14.8	4	10	270	0.00	30.206 
10:25	20.3	13.3	20.3	77	14.3	5	13	270	0.00	30.206 
10:30	20.2	14.4	20.2	76	13.9	4	9	270	0.00	30.213 
10:35	20.2	20.2	20.2	76	13.9	3	11	270	0.00	30.213 
10:40	19.7	11.6	19.7	76	13.4	6	14	270	0.00	30.213 
10:45	19.2	12.0	19.2	77	13.2	5	16	270	0.00	30.234 
10:50	19.1	13.2	19.1	77	13.1	4	7	270	0.00	30.234 
10:55	18.9	12.9	18.9	77	12.9	4	12	270	0.00	30.234 
11:00	18.4	11.1	18.4	77	12.4	5	13	270	0.00	30.237 
11:05	18.3	11.0	18.3	77	12.3	5	10	270	0.00	30.237 
11:10	18.1	12.0	18.1	77	12.1	4	12	270	0.00	30.237 
11:15	17.8	10.4	17.8	76	11.5	5	12	270	0.00	30.246 
11:20	17.5	10.0	17.5	76	11.3	5	13	270	0.00	30.246 
11:25	17.2	11.0	17.2	76	11.0	4	11	270	0.00	30.246 
11:30	17.2	11.0	17.2	75	10.7	4	14	270	0.00	30.248 
11:35	17.2	11.0	17.2	76	11.0	4	10	270	0.00	30.248 
11:40	17.0	10.7	17.0	76	10.8	4	12	270	0.00	30.248 
11:45	16.9	9.3	16.9	77	11.0	5	14	270	0.00	30.264 
11:50	16.7	10.4	16.7	77	10.8	4	10	270	0.00	30.264 
11:55	16.7	16.7	16.7	77	10.8	3	7	270	0.00	30.264 
12:00	16.7	10.4	16.7	75	10.2	4	14	270	0.00	30.258 
12:05	16.7	10.4	16.7	75	10.2	4	11	270	0.00	30.258 
12:10	16.4	8.8	16.4	73	9.3	5	11	270	0.00	30.258 
12:15	16.1	8.4	16.1	72	8.7	5	14	270	0.00	30.275 
12:20	16.2	9.8	16.2	73	9.1	4	7	270	0.00	30.275 
12:25	16.2	16.2	16.2	73	9.1	3	6	270	0.00	30.275 
12:30	16.1	8.4	16.1	73	9.0	5	16	270	0.00	30.287 
12:35	16.1	9.7	16.1	73	9.0	4	10	270	0.00	30.287 
12:40	16.1	9.7	16.1	74	9.3	4	9	270	0.00	30.287 
12:45	15.9	8.2	15.9	75	9.4	5	15	270	0.00	30.288 
12:50	15.7	7.9	15.7	74	8.9	5	13	270	0.00	30.288 
12:55	15.7	9.2	15.7	75	9.2	4	15	270	0.00	30.288 
13:00	15.6	9.1	15.6	73	8.5	4	11	270	0.00	30.291 
13:05	15.7	7.9	15.7	73	8.6	5	13	270	0.00	30.291 
13:10	15.7	9.2	15.7	74	8.9	4	11	270	0.00	30.291 
13:15	15.7	7.9	15.7	73	8.6	5	12	270	0.00	30.302 
13:20	15.6	9.1	15.6	74	8.8	4	13	270	0.00	30.302 
13:25	15.4	8.9	15.4	75	8.9	4	9	270	0.00	30.302 
13:30	15.1	7.2	15.1	74	8.3	5	12	270	0.00	30.306 
13:35	15.1	7.2	15.1	75	8.6	5	14	270	0.00	30.306 
13:40	15.1	8.6	15.1	74	8.3	4	10	270	0.00	30.306 
13:45	15.2	15.2	15.2	74	8.4	3	9	270	0.00	30.323 
13:50	15.2	8.7	15.2	73	8.1	4	11	270	0.00	30.323 
13:55	15.2	15.2	15.2	73	8.1	3	7	270	0.00	30.323 
14:00	15.4	15.4	15.4	74	8.6	2	5	270	0.00	30.328 
14:05	15.4	8.9	15.4	72	8.0	4	15	270	0.00	30.328 
14:10	15.4	15.4	15.4	73	8.3	3	13	270	0.00	30.328 
14:15	15.6	9.1	15.6	72	8.2	4	7	270	0.00	30.336 
14:20	15.7	9.2	15.7	73	8.6	4	12	270	0.00	30.336 
14:25	16.1	16.1	16.1	73	9.0	3	7	270	0.00	30.336 
14:30	16.5	10.2	16.5	72	9.1	4	12	270	0.00	30.347 
14:35	16.9	10.6	16.9	71	9.2	4	10	270	0.00	30.347 
14:40	16.9	16.9	16.9	69	8.5	3	6	270	0.00	30.347 
14:45	16.2	16.2	16.2	67	7.2	3	7	270	0.00	30.357 
14:50	15.9	9.5	15.9	68	7.2	4	13	270	0.00	30.357 
14:55	15.7	15.7	15.7	68	7.0	3	7	270	0.00	30.357 
15:00	15.9	15.9	15.9	69	7.6	3	6	270	0.00	30.364 
15:05	16.4	16.4	16.4	69	8.0	3	6	270	0.00	30.364 
15:10	16.4	16.4	16.4	68	7.7	3	6	292	0.00	30.364 
15:15	16.2	16.2	16.2	68	7.5	3	6	270	0.00	30.367 
15:20	15.9	15.9	15.9	68	7.2	3	5	270	0.00	30.367 
15:25	15.7	15.7	15.7	69	7.4	3	5	270	0.00	30.367 
15:30	16.2	16.2	16.2	70	8.2	3	6	270	0.00	30.380 
15:35	16.5	16.5	16.5	69	8.1	3	7	270	0.00	30.380 
15:40	16.9	16.9	16.9	69	8.5	2	5	248	0.00	30.380 
15:45	16.9	16.9	16.9	68	8.2	3	7	292	0.00	30.379 
15:50	16.9	16.9	16.9	68	8.2	3	7	248	0.00	30.379 
15:55	16.7	16.7	16.7	68	8.0	3	7	270	0.00	30.379 
16:00	16.7	16.7	16.7	67	7.7	3	6	270	0.00	30.383 
16:05	16.5	16.5	16.5	68	7.8	2	4	270	0.00	30.383 
16:10	16.5	16.5	16.5	68	7.8	2	4	270	0.00	30.383 
16:15	16.4	16.4	16.4	68	7.7	2	5	270	0.00	30.402 
16:20	16.4	16.4	16.4	68	7.7	2	5	270	0.00	30.402 
16:25	16.2	16.2	16.2	67	7.2	3	5	270	0.00	30.402 
16:30	16.1	16.1	16.1	67	7.1	2	5	270	0.00	30.412 
16:35	16.1	16.1	16.1	68	7.4	2	6	270	0.00	30.412 
16:40	15.7	15.7	15.7	67	6.7	3	8	270	0.00	30.412 
16:45	15.6	15.6	15.6	68	7.0	2	6	248	0.00	30.420 
16:50	15.6	15.6	15.6	68	7.0	2	5	270	0.00	30.420 
16:55	15.4	15.4	15.4	69	7.1	2	4	270	0.00	30.420 
17:00	15.4	15.4	15.4	69	7.1	1	3	292	0.00	30.437 
17:05	15.4	15.4	15.4	69	7.1	2	4	315	0.00	30.437 
17:10	15.2	15.2	15.2	69	6.9	3	9	270	0.00	30.437 
17:15	15.2	15.2	15.2	69	6.9	2	6	292	0.00	30.459 
17:20	15.4	15.4	15.4	70	7.4	2	4	248	0.00	30.459 
17:25	15.4	15.4	15.4	70	7.4	2	5	248	0.00	30.459 
17:30	15.6	15.6	15.6	70	7.6	1	3	292	0.00	30.460 
17:35	15.6	15.6	15.6	70	7.6	1	4	270	0.00	30.460 
17:40	15.6	15.6	15.6	70	7.6	1	3	248	0.00	30.460 
17:45	15.7	15.7	15.7	70	7.7	1	3	270	0.00	30.475 
17:50	15.7	15.7	15.7	71	8.0	1	5	270	0.00	30.475 
17:55	15.7	15.7	15.7	70	7.7	2	6	270	0.00	30.475 
18:00	15.7	15.7	15.7	69	7.4	1	3	248	0.00	30.470 
18:05	15.7	15.7	15.7	70	7.7	0	2	248	0.00	30.470 
18:10	15.7	15.7	15.7	70	7.7	1	3	248	0.00	30.470 
18:15	15.7	15.7	15.7	69	7.4	2	5	270	0.00	30.481 
18:20	15.9	15.9	15.9	69	7.6	2	4	270	0.00	30.481 
18:25	15.9	15.9	15.9	70	7.9	1	3	270	0.00	30.481 
18:30	15.9	15.9	15.9	70	7.9	2	5	248	0.00	30.489 
18:35	15.9	15.9	15.9	70	7.9	2	5	248	0.00	30.489 
18:40	15.9	15.9	15.9	69	7.6	1	5	270	0.00	30.489 
18:45	15.7	15.7	15.7	69	7.4	1	4	248	0.00	30.495 
18:50	15.9	15.9	15.9	69	7.6	1	3	248	0.00	30.495 
18:55	15.7	15.7	15.7	69	7.4	1	3	248	0.00	30.495 
19:00	15.7	15.7	15.7	69	7.4	1	5	248	0.00	30.503 
19:05	15.7	15.7	15.7	69	7.4	2	4	248	0.00	30.503 
19:10	15.7	15.7	15.7	69	7.4	2	5	270	0.00	30.503 
19:15	15.7	15.7	15.7	70	7.7	1	3	225	0.00	30.519 
19:20	15.9	15.9	15.9	70	7.9	1	4	225	0.00	30.519 
19:25	15.9	15.9	15.9	70	7.9	2	7	248	0.00	30.519 
19:30	15.9	15.9	15.9	70	7.9	2	5	270	0.00	30.517 
19:35	15.7	15.7	15.7	70	7.7	2	4	270	0.00	30.517 
19:40	15.7	15.7	15.7	70	7.7	2	9	248	0.00	30.517 
19:45	15.7	15.7	15.7	70	7.7	1	4	270	0.00	30.522 
19:50	15.7	15.7	15.7	71	8.0	1	6	270	0.00	30.522 
19:55	15.7	15.7	15.7	71	8.0	1	3	248	0.00	30.522 
20:00	15.7	15.7	15.7	71	8.0	1	4	270	0.00	30.520 
20:05	15.7	15.7	15.7	72	8.3	0	3	270	0.00	30.520 
20:10	15.7	15.7	15.7	71	8.0	1	5	248	0.00	30.520 
20:15	15.9	15.9	15.9	72	8.5	1	4	270	0.00	30.532 
20:20	15.9	15.9	15.9	72	8.5	1	3	248	0.00	30.532 
20:25	15.9	15.9	15.9	72	8.5	1	3	248	0.00	30.532 
20:30	15.9	15.9	15.9	73	8.8	1	3	270	0.00	30.535 
20:35	15.9	15.9	15.9	73	8.8	1	3	248	0.00	30.535 
20:40	16.1	16.1	16.1	73	9.0	1	4	248	0.00	30.535 
20:45	15.9	15.9	15.9	73	8.8	1	4	270	0.00	30.537 
20:50	15.9	15.9	15.9	73	8.8	1	3	270	0.00	30.537 
20:55	15.9	15.9	15.9	73	8.8	0	2	270	0.00	30.537 
21:00	16.1	16.1	16.1	73	9.0	0	2	270	0.00	30.542 
21:05	16.1	16.1	16.1	73	9.0	1	2	270	0.00	30.542 
21:10	16.1	16.1	16.1	73	9.0	0	2	270	0.00	30.542 
21:15	16.2	16.2	16.2	73	9.1	0	3	248	0.00	30.549 
21:20	16.2	16.2	16.2	73	9.1	1	2	248	0.00	30.549 
21:25	16.2	16.2	16.2	73	9.1	1	2	248	0.00	30.549 
21:30	16.2	16.2	16.2	74	9.4	0	2	248	0.00	30.557 
21:35	16.2	16.2	16.2	74	9.4	0	2	248	0.00	30.557 
21:40	16.2	16.2	16.2	73	9.1	1	3	248	0.00	30.557 
21:45	16.2	16.2	16.2	73	9.1	1	2	248	0.00	30.559 
21:50	16.2	16.2	16.2	73	9.1	1	4	248	0.00	30.559 
21:55	16.2	16.2	16.2	73	9.1	1	4	248	0.00	30.559 
22:00	16.2	16.2	16.2	74	9.4	0	2	248	0.00	30.566 
22:05	16.2	16.2	16.2	73	9.1	1	3	248	0.00	30.566 
22:10	16.2	16.2	16.2	73	9.1	0	3	248	0.00	30.566 
22:15	16.2	16.2	16.2	73	9.1	1	3	248	0.00	30.571 
22:20	16.2	16.2	16.2	72	8.8	1	3	270	0.00	30.571 
22:25	16.2	16.2	16.2	72	8.8	0	1	270	0.00	30.571 
22:30	16.2	16.2	16.2	73	9.1	0	2	270	0.00	30.571 
22:35	16.2	16.2	16.2	72	8.8	1	3	225	0.00	30.571 
22:40	16.2	16.2	16.2	72	8.8	1	4	248	0.00	30.571 
22:45	16.2	16.2	16.2	72	8.8	1	3	248	0.00	30.574 
22:50	16.1	16.1	16.1	72	8.7	1	3	248	0.00	30.574 
22:55	16.1	16.1	16.1	72	8.7	0	4	248	0.00	30.574 
23:00	16.1	16.1	16.1	72	8.7	1	5	248	0.00	30.583 
23:05	16.1	16.1	16.1	72	8.7	1	4	248	0.00	30.583 
23:10	16.1	16.1	16.1	72	8.7	0	2	248	0.00	30.583 
23:15	15.9	15.9	15.9	72	8.5	0	1	248	0.00	30.579 
23:20	15.9	15.9	15.9	72	8.5	0	2	248	0.00	30.579 
23:25	15.9	15.9	15.9	73	8.8	0	2	248	0.00	30.579 
23:30	16.1	16.1	16.1	73	9.0	0	2	248	0.00	30.591 
23:35	15.9	15.9	15.9	73	8.8	1	2	248	0.00	30.591 
23:40	15.9	15.9	15.9	73	8.8	1	3	248	0.00	30.591 
23:45	15.9	15.9	15.9	73	8.8	0	2	248	0.00	30.597 
23:50	15.9	15.9	15.9	73	8.8	1	2	248	0.00	30.597 
23:55	15.9	15.9	15.9	73	8.8	0	3	248	0.00	30.597 

CoCoRaHS
IN-AL-39
A2 Web Hosting
Creative Commons License
GoDaddy
search engine by freefind advanced

loaded 2018-11-15 17:46:49 • last modified 2010-11-18 10:43:29
Privacy PolicyDisclaimer
• wx.awcolley.com is powered by PmWiki v.2002016 •
• all content (unless otherwise noted) © 2018 A W Colley